• Join FlightAware (Why Join?)
  • Login
  • US Flag 
09:48PM EST


 

Airport Tracker/Info


-or-


 

Live Flight TrackerFlight Track Log ✈ CTL14 ✈ 25-Jul-2013 ✈ KPWK - KOSU

Flight Track Log - Related Links

Times and Time Zones

All times are in EDT time to prevent confusion due to time zone crossing. See the CTL14 flight status page for this flight to view local times or setup timezone preferences in your user account.

Time Position Orientation Groundspeed Altitude Reporting Facility
EDT Latitude Longitude Course Direction KTS MPH feet Rate Location/Type
12:09AM 42.1833 -87.7833 66° East 149 171 3,300  Level Chicago TRACON
12:10AM 42.1833 -87.7333 90° East 146 168 4,000 660 Climbing Chicago TRACON
12:11AM 42.1883 -87.6917 81° East 144 166 4,600 600 Climbing Chicago Center
12:12AM 42.1922 -87.6372 84° East 146 168 5,200 600 Climbing Chicago Center
12:13AM 42.0171 -87.6678 118° Southeast  Level FlightAware Approximate
12:13AM 42.1825 -87.5864 104° East 145 167 5,900  Level Chicago Center
12:14AM 42.1617 -87.5389 121° Southeast 146 168 6,400 480 Climbing Chicago Center
12:15AM 42.1397 -87.4914 122° Southeast 150 173 6,900 240 Climbing Chicago Center
12:16AM 42.1164 -87.4411 122° Southeast 156 180 7,000  Climbing Chicago Center
12:17AM 42.0853 -87.3697 120° Southeast 182 209 7,000  Level Chicago Center
12:18AM 42.0628 -87.3106 117° Southeast 181 208 7,000  Level Chicago Center
12:19AM 42.0383 -87.2517 119° Southeast 181 208 7,000  Level Chicago Center
12:20AM 42.0128 -87.1928 120° Southeast 182 209 7,000  Level Chicago Center
12:21AM 41.9875 -87.1342 120° Southeast 183 211 7,000 -60 Level Chicago Center
12:22AM 41.9619 -87.0758 120° Southeast 182 209 6,900  Descending Chicago Center
12:23AM 41.9372 -87.0192 120° Southeast 180 207 7,000 60 Climbing Chicago Center
12:24AM 41.9128 -86.9611 119° Southeast 179 206 7,100  Climbing Chicago Center
12:25AM 41.8878 -86.9017 119° Southeast 183 211 7,100  Level Chicago Center
12:26AM 41.8614 -86.8442 122° Southeast 182 209 7,100  Level Chicago Center
12:27AM 41.8392 -86.7853 117° Southeast 180 207 7,100  Level Chicago Center
12:28AM 41.8144 -86.7264 119° Southeast 180 207 7,100  Level Chicago Center
12:29AM 41.7892 -86.6681 120° Southeast 177 204 7,100  Level Chicago Center
12:30AM 41.7619 -86.6108 123° Southeast 181 208 7,100 -60 Level Chicago Center
12:31AM 41.7372 -86.5564 121° Southeast 175 201 7,000 -60 Descending Chicago Center
12:32AM 41.7119 -86.5011 121° Southeast 173 199 7,000  Level Chicago Center
12:33AM 41.6847 -86.4458 123° Southeast 175 201 7,100  Climbing Chicago Center
12:34AM 41.6594 -86.3908 122° Southeast 174 200 7,000  Descending Chicago Center
12:35AM 41.6306 -86.3231 120° Southeast 176 203 7,100  Climbing Chicago Center
12:36AM 41.6056 -86.2669 121° Southeast 175 201 7,100  Level Chicago Center
12:37AM 41.5792 -86.2106 122° Southeast 177 204 7,100  Level Chicago Center
12:38AM 41.5544 -86.1542 120° Southeast 177 204 7,100  Level Chicago Center
12:39AM 41.5289 -86.0986 122° Southeast 176 203 7,100  Level Chicago Center
12:40AM 41.5017 -86.0439 124° Southeast 176 203 7,100 -60 Level Chicago Center
12:41AM 41.4761 -85.9867 121° Southeast 179 206 7,000 -60 Descending Chicago Center
12:42AM 41.4497 -85.9317 123° Southeast 178 205 7,000  Level Chicago Center
12:43AM 41.4228 -85.8756 123° Southeast 179 206 7,000  Level Chicago Center
12:44AM 41.3958 -85.8211 123° Southeast 178 205 7,000  Level Chicago Center
12:45AM 41.3683 -85.7669 124° Southeast 178 205 7,000  Level Chicago Center
12:46AM 41.3422 -85.7106 122° Southeast 179 206 7,000  Level Chicago Center
12:47AM 41.3136 -85.6561 125° Southeast 179 206 7,100  Climbing Chicago Center
12:48AM 41.2861 -85.6008 123° Southeast 180 207 7,000 -60 Descending Chicago Center
12:49AM 41.2606 -85.5450 121° Southeast 179 206 7,000  Level Chicago Center
12:50AM 41.2350 -85.4881 121° Southeast 180 207 7,100  Climbing Chicago Center
12:51AM 41.2083 -85.4319 122° Southeast 180 207 7,000  Descending Chicago Center
12:52AM 41.1767 -85.3658 122° Southeast 177 204 7,100  Climbing Chicago Center
12:53AM 41.1478 -85.3094 124° Southeast 184 212 7,000 -60 Descending Chicago Center
12:54AM 41.1206 -85.2542 123° Southeast 181 208 7,000  Level Chicago Center
12:55AM 41.0947 -85.1975 121° Southeast 181 208 7,000  Level Chicago Center
12:56AM 41.0678 -85.1414 122° Southeast 180 207 7,000  Level Chicago Center
12:57AM 41.0406 -85.0847 122° Southeast 183 211 7,000  Level Chicago Center
12:58AM 41.0139 -85.0294 123° Southeast 179 206 7,000  Level Chicago Center
12:59AM 40.9872 -84.9714 121° Southeast 184 212 7,000  Level Chicago Center
01:00AM 40.9606 -84.9156 122° Southeast 182 209 7,000  Level Chicago Center
01:01AM 40.9339 -84.8600 122° Southeast 181 208 7,000  Level Chicago Center
01:02AM 40.9075 -84.8042 122° Southeast 179 206 7,000  Level Chicago Center
01:03AM 40.8792 -84.7486 124° Southeast 182 209 7,000  Level Chicago Center
01:04AM 40.8522 -84.6933 123° Southeast 181 208 7,000  Level Chicago Center
01:05AM 40.8286 -84.6481 125° Southeast 178 205 7,000  Level Indianapolis Center
01:06AM 40.8017 -84.5894 121° Southeast 182 209 7,000  Level Indianapolis Center
01:07AM 40.7750 -84.5342 122° Southeast 180 207 7,000  Level Indianapolis Center
01:08AM 40.7475 -84.4750 122° Southeast 185 213 7,000  Level Indianapolis Center
01:09AM 40.7217 -84.4178 121° Southeast 182 209 7,000  Level Indianapolis Center
01:10AM 40.6950 -84.3606 122° Southeast 181 208 7,000  Level Indianapolis Center
01:11AM 40.6683 -84.3031 121° Southeast 183 211 7,000  Level Indianapolis Center
01:12AM 40.6397 -84.2483 125° Southeast 181 208 7,000  Level Indianapolis Center
01:13AM 40.6133 -84.1892 120° Southeast 184 212 7,000  Level Indianapolis Center
01:14AM 40.5864 -84.1311 121° Southeast 183 211 7,000  Level Indianapolis Center
01:15AM 40.5603 -84.0761 122° Southeast 179 206 7,000 60 Level Indianapolis Center
01:16AM 40.5433 -84.0442 125° Southeast 178 205 7,100  Climbing Indianapolis Center
01:17AM 40.5158 -83.9869 122° Southeast 174 200 7,000 -60 Descending Indianapolis Center
01:18AM 40.4917 -83.9331 121° Southeast 175 201 7,000  Level Indianapolis Center
01:19AM 40.4636 -83.8786 124° Southeast 176 203 7,000 -240 Level Indianapolis Center
01:20AM 40.4358 -83.8214 123° Southeast 185 213 6,600 -420 Descending Indianapolis Center
01:21AM 40.4106 -83.7619 119° Southeast 191 220 6,200 -420 Descending Indianapolis Center
01:22AM 40.3808 -83.7019 123° Southeast 193 222 5,800 -420 Descending Indianapolis Center
01:23AM 40.3533 -83.6394 120° Southeast 190 219 5,400 -480 Descending Indianapolis Center
01:24AM 40.3253 -83.5850 124° Southeast 183 211 4,900 -480 Descending Indianapolis Center
01:25AM 40.2989 -83.5339 124° Southeast 183 211 4,500 -420 Descending Indianapolis Center
01:26AM 40.2761 -83.4861 122° Southeast 177 204 4,200 -300 Descending Indianapolis Center
01:26AM 40.2661 -83.4597 116° Southeast 179 206 4,100 -240 Descending Indianapolis Center
01:27AM 40.2483 -83.4267 125° Southeast 169 194 4,000 -120 Descending Indianapolis Center
01:28AM 40.2239 -83.3786 124° Southeast 160 184 4,000 -60 Level Indianapolis Center
01:29AM 40.1931 -83.3122 121° Southeast 164 189 3,900 -120 Descending Indianapolis Center